Vancouver, British Columbia

5:07 AM PST on February 14, 2016 (GMT -0800)
Vancouver International | | Change Station
CLOSE
Current Station
Airport
Location: Vancouver,
Elevation: 13 ft
Nearby Weather Stations

Elev 13 ft 49.18 °N, 123.17 °W | Updated 7 minutes ago

Overcast
Overcast
43 °F
Feels Like 38 °F
N
8
Wind Variable Wind from East

Today
High -- | Low -- °F
--% Chance of Precip.
Yesterday
High -- | Low -- °F
Precip. -- in
Pressure 30.09 in
Visibility 8.0 miles
Clouds Few 400 ft
Overcast 800 ft
Windchill 38 °F
Dew Point 43 °F
Humidity 100%
Rainfall 0.00 in
Snow Depth Not available.
7:23 AM 5:30 PM
Waxing Crescent, 41% visible
METAR CYVR 141300Z 10007KT 8SM FEW004 OVC008 06/06 A3009 RMK CF1ST7 SLP190
Pressure 30.09 in
Visibility 8.0 miles
Clouds Few 400 ft
Overcast 800 ft
Windchill 38 °F
Dew Point 43 °F
Humidity 100%
Rainfall 0.00 in
Snow Depth Not available.
7:23 AM 5:30 PM
Waxing Crescent, 41% visible
METAR CYVR 141300Z 10007KT 8SM FEW004 OVC008 06/06 A3009 RMK CF1ST7 SLP190

10-Day Weather Forecast

Almanac

Astronomy

Feb. 14, 2016 Rise Set
Actual Time
Civil Twilight
Nautical Twilight
Astronomical Twilight
Moon
Length of Visible Light
Length of Day
Tomorrow will be .
, % of the Moon is Illuminated

Today's Extremes

Country Highs Country Lows

Community

WunderPhotos

Upload Photos

1,892,777 photos uploaded!

WunderBlog® & News

Nearby

Air Quality

  Air Quality AQ Index Pollutant
Not available.

Snow Depth

Station Depth Elevation

Earthquake Activity

City Distance Mag. Time & Date
Minimum magnitude displayed is 2.5.

Coastal Water Temperatures

Place Temperature

Stations

Nearby Weather Stations

Station Location Temp. Windchill Dew Point Humidity Wind Precip. Elev Updated Type
                   

Watches & Warnings

There are currently no watches in effect.